createdAt,value
2022-09-18T00:00:22.666Z,10.31
2022-09-18T00:01:22.683Z,10.31
2022-09-18T00:02:22.679Z,10.31
2022-09-18T00:03:22.661Z,10.31
2022-09-18T00:04:22.601Z,10.31
2022-09-18T00:05:22.585Z,10.32
2022-09-18T00:06:22.576Z,10.32
2022-09-18T00:07:22.559Z,10.29
2022-09-18T00:08:22.555Z,10.29
2022-09-18T00:09:22.539Z,10.26
2022-09-18T00:10:22.526Z,10.28
2022-09-18T00:11:22.498Z,10.25
2022-09-18T00:12:22.492Z,10.26
2022-09-18T00:13:22.484Z,10.26
2022-09-18T00:14:22.456Z,10.25
2022-09-18T00:15:22.464Z,10.28
2022-09-18T00:16:22.497Z,10.26
2022-09-18T00:17:22.427Z,10.28
2022-09-18T00:18:22.413Z,10.28
2022-09-18T00:19:22.401Z,10.28
2022-09-18T00:20:22.396Z,10.28
2022-09-18T00:21:22.362Z,10.28
2022-09-18T00:22:22.347Z,10.28
2022-09-18T00:23:22.341Z,10.28
2022-09-18T00:24:22.361Z,10.28
2022-09-18T00:25:22.314Z,10.26
2022-09-18T00:26:22.302Z,10.26
2022-09-18T00:27:22.287Z,10.28
2022-09-18T00:28:22.280Z,10.26
2022-09-18T00:29:22.255Z,10.26
2022-09-18T00:30:22.264Z,10.26
2022-09-18T00:31:22.262Z,10.26
2022-09-18T00:32:22.226Z,10.26
2022-09-18T00:33:22.194Z,10.26
2022-09-18T00:34:22.184Z,10.25
2022-09-18T00:35:22.186Z,10.25
2022-09-18T00:36:22.164Z,10.24
2022-09-18T00:37:22.152Z,10.24
2022-09-18T00:38:22.134Z,10.22
2022-09-18T00:39:22.116Z,10.24
2022-09-18T00:40:22.192Z,10.25
2022-09-18T00:41:22.095Z,10.22
2022-09-18T00:42:22.084Z,10.24
2022-09-18T00:43:22.062Z,10.24
2022-09-18T00:44:22.053Z,10.22
2022-09-18T00:45:22.055Z,10.24
2022-09-18T00:46:22.110Z,10.20
2022-09-18T00:47:22.015Z,10.22
2022-09-18T00:48:22.013Z,10.20
2022-09-18T00:49:21.981Z,10.18
2022-09-18T00:50:21.983Z,10.18
2022-09-18T00:51:21.963Z,10.18
2022-09-18T00:52:21.951Z,10.18
2022-09-18T00:53:21.934Z,10.18
2022-09-18T00:54:21.933Z,10.20
2022-09-18T00:55:21.912Z,10.20
2022-09-18T00:56:21.903Z,10.22
2022-09-18T00:57:21.881Z,10.22
2022-09-18T00:58:21.875Z,10.20
2022-09-18T00:59:21.861Z,10.20
2022-09-18T01:00:21.842Z,10.18
2022-09-18T01:01:21.971Z,10.18
2022-09-18T01:02:21.925Z,10.17
2022-09-18T01:03:21.801Z,10.17
2022-09-18T01:04:21.803Z,10.18
2022-09-18T01:05:21.772Z,10.17
2022-09-18T01:06:21.761Z,10.17
2022-09-18T01:07:21.752Z,10.18
2022-09-18T01:08:21.752Z,10.18
2022-09-18T01:09:28.507Z,10.17
2022-09-18T01:10:22.711Z,10.18
2022-09-18T01:11:21.698Z,10.18
2022-09-18T01:12:21.679Z,10.18
2022-09-18T01:13:21.659Z,10.20
2022-09-18T01:14:21.661Z,10.20
2022-09-18T01:15:21.637Z,10.20
2022-09-18T01:16:21.721Z,10.20
2022-09-18T01:17:21.613Z,10.18
2022-09-18T01:18:21.599Z,10.22
2022-09-18T01:19:21.599Z,10.20
2022-09-18T01:20:21.576Z,10.18
2022-09-18T01:21:21.559Z,10.20
2022-09-18T01:22:21.550Z,10.22
2022-09-18T01:23:21.540Z,10.20
2022-09-18T01:24:21.534Z,10.20
2022-09-18T01:25:21.511Z,10.20
2022-09-18T01:26:21.488Z,10.20
2022-09-18T01:27:21.482Z,10.20
2022-09-18T01:28:21.477Z,10.20
2022-09-18T01:29:21.460Z,10.22
2022-09-18T01:30:21.447Z,10.20
2022-09-18T01:31:21.469Z,10.20
2022-09-18T01:32:21.417Z,10.17
2022-09-18T01:33:21.397Z,10.18
2022-09-18T01:34:21.402Z,10.18
2022-09-18T01:35:40.435Z,10.20
2022-09-18T01:36:22.361Z,10.20
2022-09-18T01:37:21.344Z,10.18
2022-09-18T01:38:21.359Z,10.18
2022-09-18T01:39:21.318Z,10.20
2022-09-18T01:40:21.351Z,10.18
2022-09-18T01:41:21.289Z,10.18
2022-09-18T01:42:21.277Z,10.18
2022-09-18T01:43:21.286Z,10.18
2022-09-18T01:44:21.256Z,10.18
2022-09-18T01:45:21.237Z,10.18
2022-09-18T01:46:21.322Z,10.20
2022-09-18T01:47:21.206Z,10.20
2022-09-18T01:48:21.216Z,10.20
2022-09-18T01:49:21.178Z,10.20
2022-09-18T01:50:21.167Z,10.22
2022-09-18T01:51:21.155Z,10.22
2022-09-18T01:52:21.158Z,10.22
2022-09-18T01:53:21.150Z,10.22
2022-09-18T01:54:21.125Z,10.22
2022-09-18T01:55:21.099Z,10.22
2022-09-18T01:56:21.095Z,10.22
2022-09-18T01:57:21.076Z,10.24
2022-09-18T01:58:21.104Z,10.22
2022-09-18T01:59:21.045Z,10.24
2022-09-18T02:00:21.036Z,10.24
2022-09-18T02:01:21.040Z,10.25
2022-09-18T02:02:21.134Z,10.24
2022-09-18T02:03:21.004Z,10.25
2022-09-18T02:04:20.993Z,10.25
2022-09-18T02:05:20.974Z,10.26
2022-09-18T02:06:20.955Z,10.25
2022-09-18T02:07:20.942Z,10.25
2022-09-18T02:08:20.939Z,10.24
2022-09-18T02:09:20.942Z,10.24
2022-09-18T02:10:20.911Z,10.24
2022-09-18T02:11:20.884Z,10.24
2022-09-18T02:12:20.872Z,10.24
2022-09-18T02:13:20.941Z,10.24
2022-09-18T02:14:20.855Z,10.22
2022-09-18T02:15:20.841Z,10.22
2022-09-18T02:16:20.880Z,10.22
2022-09-18T02:17:20.803Z,10.22
2022-09-18T02:18:20.812Z,10.24
2022-09-18T02:19:20.782Z,10.22
2022-09-18T02:20:20.794Z,10.20
2022-09-18T02:21:20.775Z,10.20
2022-09-18T02:22:20.755Z,10.20
2022-09-18T02:23:20.735Z,10.24
2022-09-18T02:24:20.726Z,10.24
2022-09-18T02:25:20.700Z,10.24
2022-09-18T02:26:20.692Z,10.22
2022-09-18T02:27:20.681Z,10.24
2022-09-18T02:28:20.667Z,10.22
2022-09-18T02:29:20.651Z,10.22
2022-09-18T02:30:20.643Z,10.24
2022-09-18T02:31:20.678Z,10.24
2022-09-18T02:32:20.623Z,10.24
2022-09-18T02:33:20.601Z,10.24
2022-09-18T02:34:20.597Z,10.25
2022-09-18T02:35:20.592Z,10.24
2022-09-18T02:36:20.569Z,10.24
2022-09-18T02:37:20.566Z,10.24
2022-09-18T02:38:20.542Z,10.22
2022-09-18T02:39:20.510Z,10.24
2022-09-18T02:40:20.539Z,10.25
2022-09-18T02:41:20.493Z,10.22
2022-09-18T02:42:20.492Z,10.24
2022-09-18T02:43:20.462Z,10.24
2022-09-18T02:44:20.450Z,10.24
2022-09-18T02:45:20.431Z,10.25
2022-09-18T02:46:20.462Z,10.24
2022-09-18T02:47:20.409Z,10.24
2022-09-18T02:48:20.392Z,10.25
2022-09-18T02:49:20.382Z,10.26
2022-09-18T02:50:20.381Z,10.25
2022-09-18T02:51:20.349Z,10.25
2022-09-18T02:52:20.360Z,10.24
2022-09-18T02:53:20.329Z,10.25
2022-09-18T02:54:20.311Z,10.25
2022-09-18T02:55:20.305Z,10.24
2022-09-18T02:56:20.290Z,10.25
2022-09-18T02:57:20.291Z,10.24
2022-09-18T02:58:20.264Z,10.24
2022-09-18T02:59:20.250Z,10.24
2022-09-18T03:00:20.239Z,10.22
2022-09-18T03:01:20.309Z,10.25
2022-09-18T03:02:20.355Z,10.24
2022-09-18T03:03:20.197Z,10.22
2022-09-18T03:04:20.188Z,10.22
2022-09-18T03:05:20.172Z,10.22
2022-09-18T03:06:20.157Z,10.22
2022-09-18T03:07:20.154Z,10.22
2022-09-18T03:08:20.128Z,10.20
2022-09-18T03:09:20.111Z,10.22
2022-09-18T03:10:20.098Z,10.20
2022-09-18T03:11:20.090Z,10.18
2022-09-18T03:12:20.082Z,10.18
2022-09-18T03:13:20.059Z,10.20
2022-09-18T03:14:20.050Z,10.20
2022-09-18T03:15:20.030Z,10.20
2022-09-18T03:16:20.053Z,10.18
2022-09-18T03:17:20.020Z,10.20
2022-09-18T03:18:19.993Z,10.20
2022-09-18T03:19:19.982Z,10.18
2022-09-18T03:20:19.978Z,10.18
2022-09-18T03:21:19.981Z,10.18
2022-09-18T03:22:19.950Z,10.20
2022-09-18T03:23:19.927Z,10.17
2022-09-18T03:24:19.923Z,10.18
2022-09-18T03:25:19.912Z,10.18
2022-09-18T03:26:19.910Z,10.18
2022-09-18T03:27:19.876Z,10.17
2022-09-18T03:28:19.885Z,10.18
2022-09-18T03:29:19.837Z,10.18
2022-09-18T03:30:19.836Z,10.17
2022-09-18T03:31:19.872Z,10.16
2022-09-18T03:32:19.817Z,10.13
2022-09-18T03:33:19.796Z,10.13
2022-09-18T03:34:19.778Z,10.14
2022-09-18T03:35:19.760Z,10.14
2022-09-18T03:36:19.754Z,10.14
2022-09-18T03:37:19.748Z,10.14
2022-09-18T03:38:19.728Z,10.11
2022-09-18T03:39:19.706Z,10.13
2022-09-18T03:40:19.726Z,10.13
2022-09-18T03:41:19.689Z,10.11
2022-09-18T03:42:19.685Z,10.11
2022-09-18T03:43:19.655Z,10.13
2022-09-18T03:44:19.635Z,10.11
2022-09-18T03:45:19.644Z,10.11
2022-09-18T03:46:19.676Z,10.10
2022-09-18T03:47:19.611Z,10.10
2022-09-18T03:48:19.585Z,10.11
2022-09-18T03:49:19.573Z,10.11
2022-09-18T03:50:19.565Z,10.10
2022-09-18T03:51:19.556Z,10.10
2022-09-18T03:52:19.544Z,10.09
2022-09-18T03:53:19.528Z,10.10
2022-09-18T03:54:19.514Z,10.07
2022-09-18T03:55:19.493Z,10.07
2022-09-18T03:56:19.495Z,10.07
2022-09-18T03:57:19.474Z,10.07
2022-09-18T03:58:19.453Z,10.09
2022-09-18T03:59:19.442Z,10.07
2022-09-18T04:00:19.423Z,10.07
2022-09-18T04:01:19.432Z,10.07
2022-09-18T04:02:19.403Z,10.06
2022-09-18T04:03:19.468Z,10.04
2022-09-18T04:04:19.372Z,10.02
2022-09-18T04:05:19.372Z,10.02
2022-09-18T04:06:19.362Z,10.01
2022-09-18T04:07:19.334Z,10.01
2022-09-18T04:08:19.311Z,9.99
2022-09-18T04:09:19.309Z,9.98
2022-09-18T04:10:19.309Z,9.98
2022-09-18T04:11:19.314Z,9.96
2022-09-18T04:12:19.293Z,9.96
2022-09-18T04:13:19.283Z,9.95
2022-09-18T04:14:19.256Z,9.96
2022-09-18T04:15:19.233Z,9.95
2022-09-18T04:16:19.321Z,9.95
2022-09-18T04:17:19.217Z,9.95
2022-09-18T04:18:19.184Z,9.96
2022-09-18T04:19:19.172Z,9.96
2022-09-18T04:20:19.164Z,9.93
2022-09-18T04:21:19.166Z,9.96
2022-09-18T04:22:19.133Z,9.95
2022-09-18T04:23:19.115Z,9.93
2022-09-18T04:24:19.111Z,9.95
2022-09-18T04:25:19.114Z,9.96
2022-09-18T04:26:19.093Z,9.95
2022-09-18T04:27:19.083Z,9.95
2022-09-18T04:28:19.044Z,9.95
2022-09-18T04:29:19.052Z,9.93
2022-09-18T04:30:19.034Z,9.95
2022-09-18T04:31:19.101Z,9.93
2022-09-18T04:32:19.015Z,9.95
2022-09-18T04:33:18.992Z,9.93
2022-09-18T04:34:18.972Z,9.93
2022-09-18T04:35:18.975Z,9.93
2022-09-18T04:36:18.947Z,9.93
2022-09-18T04:37:18.949Z,9.93
2022-09-18T04:38:18.922Z,9.93
2022-09-18T04:39:18.900Z,9.93
2022-09-18T04:40:18.980Z,9.93
2022-09-18T04:41:18.882Z,9.92
2022-09-18T04:42:18.861Z,9.91
2022-09-18T04:43:18.849Z,9.91
2022-09-18T04:44:18.843Z,9.91
2022-09-18T04:45:18.840Z,9.89
2022-09-18T04:46:18.868Z,9.91
2022-09-18T04:47:18.805Z,9.91
2022-09-18T04:48:18.783Z,9.91
2022-09-18T04:49:18.783Z,9.91
2022-09-18T04:50:18.774Z,9.92
2022-09-18T04:51:18.742Z,9.92
2022-09-18T04:52:18.730Z,9.92
2022-09-18T04:53:18.724Z,9.93
2022-09-18T04:54:18.701Z,9.92
2022-09-18T04:55:18.711Z,9.93
2022-09-18T04:56:18.668Z,9.93
2022-09-18T04:57:18.661Z,9.93
2022-09-18T04:58:18.650Z,9.93
2022-09-18T04:59:18.638Z,9.93
2022-09-18T05:00:18.635Z,9.93
2022-09-18T05:01:18.719Z,9.95
2022-09-18T05:02:18.665Z,9.95
2022-09-18T05:03:18.588Z,9.96
2022-09-18T05:04:18.568Z,9.96
2022-09-18T05:05:18.569Z,9.98
2022-09-18T05:06:18.537Z,9.99
2022-09-18T05:07:18.538Z,10.01
2022-09-18T05:08:18.547Z,9.99
2022-09-18T05:09:18.510Z,10.02
2022-09-18T05:10:18.500Z,10.02
2022-09-18T05:11:18.479Z,10.02
2022-09-18T05:12:18.467Z,10.04
2022-09-18T05:13:18.449Z,10.06
2022-09-18T05:14:18.437Z,10.04
2022-09-18T05:15:18.435Z,10.06
2022-09-18T05:16:19.613Z,10.06
2022-09-18T05:17:18.410Z,10.04
2022-09-18T05:18:18.376Z,10.07
2022-09-18T05:19:18.367Z,10.06
2022-09-18T05:20:18.366Z,10.07
2022-09-18T05:21:18.346Z,10.06
2022-09-18T05:22:18.327Z,10.07
2022-09-18T05:23:18.315Z,10.10
2022-09-18T05:24:18.302Z,10.07
2022-09-18T05:25:18.302Z,10.10
2022-09-18T05:26:18.274Z,10.10
2022-09-18T05:27:18.271Z,10.11
2022-09-18T05:28:18.256Z,10.11
2022-09-18T05:29:18.235Z,10.13
2022-09-18T05:30:18.225Z,10.14
2022-09-18T05:31:18.267Z,10.14
2022-09-18T05:32:18.195Z,10.16
2022-09-18T05:33:18.186Z,10.16
2022-09-18T05:34:18.174Z,10.17
2022-09-18T05:35:18.172Z,10.16
2022-09-18T05:36:18.137Z,10.16
2022-09-18T05:37:18.138Z,10.17
2022-09-18T05:38:18.114Z,10.17
2022-09-18T05:39:18.108Z,10.18
2022-09-18T05:40:18.246Z,10.20
2022-09-18T05:41:18.079Z,10.22
2022-09-18T05:42:18.066Z,10.24
2022-09-18T05:43:18.048Z,10.24
2022-09-18T05:44:18.032Z,10.25
2022-09-18T05:45:18.038Z,10.24
2022-09-18T05:46:18.051Z,10.25
2022-09-18T05:47:17.996Z,10.28
2022-09-18T05:48:17.990Z,10.29
2022-09-18T05:49:17.971Z,10.31
2022-09-18T05:50:17.961Z,10.32
2022-09-18T05:51:17.944Z,10.34
2022-09-18T05:52:17.928Z,10.36
2022-09-18T05:53:17.921Z,10.39
2022-09-18T05:54:17.912Z,10.39
2022-09-18T05:55:17.905Z,10.43
2022-09-18T05:56:17.862Z,10.44
2022-09-18T05:57:17.866Z,10.47
2022-09-18T05:58:17.846Z,10.47
2022-09-18T05:59:17.847Z,10.51
2022-09-18T06:00:17.831Z,10.51
2022-09-18T06:01:17.811Z,10.49
2022-09-18T06:02:17.841Z,10.51
2022-09-18T06:03:17.836Z,10.54
2022-09-18T06:04:17.775Z,10.54
2022-09-18T06:05:17.761Z,10.57
2022-09-18T06:06:17.742Z,10.57
2022-09-18T06:07:17.729Z,10.57
2022-09-18T06:08:17.723Z,10.57
2022-09-18T06:09:17.700Z,10.60
2022-09-18T06:10:17.703Z,10.62
2022-09-18T06:11:17.683Z,10.62
2022-09-18T06:12:17.664Z,10.60
2022-09-18T06:13:17.648Z,10.62
2022-09-18T06:14:17.636Z,10.63
2022-09-18T06:15:17.638Z,10.63
2022-09-18T06:16:17.632Z,10.63
2022-09-18T06:17:17.593Z,10.66
2022-09-18T06:18:17.582Z,10.66
2022-09-18T06:19:17.563Z,10.68
2022-09-18T06:20:17.552Z,10.72
2022-09-18T06:21:17.532Z,10.75
2022-09-18T06:22:17.522Z,10.76
2022-09-18T06:23:17.538Z,10.80
2022-09-18T06:24:17.501Z,10.84
2022-09-18T06:25:17.493Z,10.88
2022-09-18T06:26:17.482Z,10.93
2022-09-18T06:27:17.460Z,10.98
2022-09-18T06:28:17.457Z,10.99
2022-09-18T06:29:17.432Z,10.99
2022-09-18T06:30:17.435Z,11.01
2022-09-18T06:31:17.440Z,11.03
2022-09-18T06:32:17.387Z,11.05
2022-09-18T06:33:17.382Z,11.06
2022-09-18T06:34:17.382Z,11.11
2022-09-18T06:35:17.359Z,11.12
2022-09-18T06:36:17.338Z,11.16
2022-09-18T06:37:17.324Z,11.19
2022-09-18T06:38:17.322Z,11.23
2022-09-18T06:39:17.309Z,11.28
2022-09-18T06:40:17.367Z,11.39
2022-09-18T06:41:17.304Z,11.41
2022-09-18T06:42:17.260Z,11.41
2022-09-18T06:43:17.262Z,11.46
2022-09-18T06:44:17.240Z,11.51
2022-09-18T06:45:17.234Z,11.57
2022-09-18T06:46:17.227Z,11.79
2022-09-18T06:47:17.198Z,12.36
2022-09-18T06:48:17.169Z,12.79
2022-09-18T06:49:17.193Z,13.25
2022-09-18T06:50:17.149Z,13.69
2022-09-18T06:51:17.141Z,13.79
2022-09-18T06:52:17.119Z,13.91
2022-09-18T06:53:17.120Z,13.96
2022-09-18T06:54:17.107Z,13.93
2022-09-18T06:55:17.080Z,14.24
2022-09-18T06:56:17.070Z,14.61
2022-09-18T06:57:17.057Z,14.66
2022-09-18T06:58:17.038Z,14.71
2022-09-18T06:59:17.042Z,14.67
2022-09-18T07:00:17.009Z,15.05
2022-09-18T07:01:17.065Z,15.59
2022-09-18T07:02:19.649Z,16.14
2022-09-18T07:03:16.979Z,16.70
2022-09-18T07:04:16.973Z,16.82
2022-09-18T07:05:16.949Z,16.91
2022-09-18T07:06:16.944Z,16.77
2022-09-18T07:07:16.933Z,16.82
2022-09-18T07:08:16.900Z,16.70
2022-09-18T07:09:16.917Z,16.48
2022-09-18T07:10:16.885Z,16.27
2022-09-18T07:11:16.874Z,16.08
2022-09-18T07:12:16.862Z,15.95
2022-09-18T07:13:16.861Z,15.86
2022-09-18T07:14:16.830Z,16.16
2022-09-18T07:15:16.821Z,16.41
2022-09-18T07:16:16.869Z,17.00
2022-09-18T07:17:18.700Z,17.51
2022-09-18T07:18:16.785Z,17.81
2022-09-18T07:19:16.777Z,18.25
2022-09-18T07:20:16.748Z,18.71
2022-09-18T07:21:16.754Z,19.12
2022-09-18T07:22:16.720Z,19.49
2022-09-18T07:23:16.710Z,19.82
2022-09-18T07:24:16.708Z,20.12
2022-09-18T07:25:16.688Z,20.25
2022-09-18T07:26:16.668Z,20.51
2022-09-18T07:27:16.658Z,20.83
2022-09-18T07:28:16.643Z,21.11
2022-09-18T07:29:16.640Z,21.30
2022-09-18T07:30:16.609Z,21.46
2022-09-18T07:31:16.650Z,21.61
2022-09-18T07:32:16.589Z,21.71
2022-09-18T07:33:16.588Z,21.79
2022-09-18T07:34:16.572Z,21.93
2022-09-18T07:35:16.552Z,22.08
2022-09-18T07:36:16.528Z,22.31
2022-09-18T07:37:16.525Z,22.59
2022-09-18T07:38:16.510Z,22.84
2022-09-18T07:39:16.526Z,23.06
2022-09-18T07:40:16.570Z,23.22
2022-09-18T07:41:16.472Z,23.31
2022-09-18T07:42:16.469Z,23.39
2022-09-18T07:43:16.441Z,23.53
2022-09-18T07:44:16.439Z,23.54
2022-09-18T07:45:16.422Z,23.64
2022-09-18T07:46:16.452Z,23.82
2022-09-18T07:47:16.397Z,23.96
2022-09-18T07:48:16.370Z,24.08
2022-09-18T07:49:16.380Z,24.24
2022-09-18T07:50:16.341Z,23.81
2022-09-18T07:51:16.341Z,23.23
2022-09-18T07:52:16.325Z,22.64
2022-09-18T07:53:16.321Z,22.20
2022-09-18T07:54:16.302Z,22.19
2022-09-18T07:55:16.285Z,22.45
2022-09-18T07:56:16.271Z,22.84
2022-09-18T07:57:16.253Z,23.03
2022-09-18T07:58:16.259Z,23.14
2022-09-18T07:59:16.241Z,23.45
2022-09-18T08:00:16.222Z,23.79
2022-09-18T08:01:16.202Z,24.11
2022-09-18T08:02:16.402Z,24.29
2022-09-18T08:03:16.227Z,24.36
2022-09-18T08:04:16.173Z,24.51
2022-09-18T08:05:16.151Z,24.46
2022-09-18T08:06:16.139Z,24.49
2022-09-18T08:07:16.119Z,24.61
2022-09-18T08:08:16.113Z,24.75
2022-09-18T08:09:16.122Z,24.92
2022-09-18T08:10:16.106Z,25.01
2022-09-18T08:11:16.062Z,24.80
2022-09-18T08:12:16.053Z,24.87
2022-09-18T08:13:16.054Z,24.92
2022-09-18T08:14:16.047Z,25.05
2022-09-18T08:15:16.013Z,25.16
2022-09-18T08:16:16.063Z,24.67
2022-09-18T08:17:15.994Z,24.29
2022-09-18T08:18:16.245Z,24.19
2022-09-18T08:19:15.966Z,24.30
2022-09-18T08:20:15.955Z,24.36
2022-09-18T08:21:15.937Z,24.53
2022-09-18T08:22:15.929Z,24.74
2022-09-18T08:23:15.930Z,24.90
2022-09-18T08:24:15.946Z,25.07
2022-09-18T08:25:15.882Z,25.11
2022-09-18T08:26:21.464Z,25.04
2022-09-18T08:27:16.854Z,25.02
2022-09-18T08:28:15.882Z,25.14
2022-09-18T08:29:15.839Z,24.83
2022-09-18T08:30:16.244Z,24.30
2022-09-18T08:31:15.879Z,23.97
2022-09-18T08:32:15.812Z,23.93
2022-09-18T08:33:15.786Z,23.60
2022-09-18T08:34:15.766Z,23.57
2022-09-18T08:35:15.758Z,23.34
2022-09-18T08:36:15.735Z,23.44
2022-09-18T08:37:15.748Z,23.63
2022-09-18T08:38:15.728Z,23.72
2022-09-18T08:39:15.699Z,23.72
2022-09-18T08:40:15.735Z,23.64
2022-09-18T08:41:15.680Z,23.49
2022-09-18T08:42:15.665Z,23.19
2022-09-18T08:43:15.679Z,22.89
2022-09-18T08:44:15.638Z,22.57
2022-09-18T08:45:15.648Z,22.24
2022-09-18T08:46:15.680Z,21.90
2022-09-18T08:47:15.611Z,21.58
2022-09-18T08:48:15.622Z,21.30
2022-09-18T08:49:15.568Z,20.97
2022-09-18T08:50:15.556Z,20.69
2022-09-18T08:51:15.537Z,20.46
2022-09-18T08:52:15.542Z,20.25
2022-09-18T08:53:15.507Z,20.08
2022-09-18T08:54:15.508Z,19.94
2022-09-18T08:55:15.480Z,19.75
2022-09-18T08:56:15.486Z,19.62
2022-09-18T08:57:15.729Z,19.58
2022-09-18T08:58:15.471Z,19.53
2022-09-18T08:59:15.439Z,19.72
2022-09-18T09:00:15.426Z,19.71
2022-09-18T09:01:15.473Z,19.94
2022-09-18T09:02:15.545Z,20.08
2022-09-18T09:03:15.387Z,20.33
2022-09-18T09:04:15.374Z,20.51
2022-09-18T09:05:15.377Z,20.63
2022-09-18T09:06:15.347Z,20.85
2022-09-18T09:07:15.337Z,21.06
2022-09-18T09:08:15.332Z,20.96
2022-09-18T09:09:20.522Z,20.79
2022-09-18T09:10:16.288Z,20.64
2022-09-18T09:11:15.272Z,20.51
2022-09-18T09:12:15.406Z,20.27
2022-09-18T09:13:15.430Z,20.01
2022-09-18T09:14:15.237Z,19.79
2022-09-18T09:15:19.462Z,19.65
2022-09-18T09:16:16.289Z,19.52
2022-09-18T09:17:15.200Z,19.39
2022-09-18T09:18:15.179Z,19.25
2022-09-18T09:19:15.169Z,19.07
2022-09-18T09:20:15.179Z,18.89
2022-09-18T09:21:15.139Z,18.71
2022-09-18T09:22:15.143Z,18.51
2022-09-18T09:23:15.112Z,18.32
2022-09-18T09:24:15.101Z,18.13
2022-09-18T09:25:15.081Z,17.95
2022-09-18T09:26:15.075Z,17.89
2022-09-18T09:27:15.115Z,17.80
2022-09-18T09:28:16.645Z,17.74
2022-09-18T09:29:15.030Z,17.70
2022-09-18T09:30:15.030Z,17.63
2022-09-18T09:31:15.466Z,17.58
2022-09-18T09:32:15.021Z,17.71
2022-09-18T09:33:14.985Z,17.87
2022-09-18T09:34:14.971Z,18.11
2022-09-18T09:35:14.952Z,18.32
2022-09-18T09:36:14.952Z,18.53
2022-09-18T09:37:14.942Z,18.66
2022-09-18T09:38:14.910Z,18.79
2022-09-18T09:39:14.904Z,18.97
2022-09-18T09:40:14.950Z,19.13
2022-09-18T09:41:14.880Z,19.20
2022-09-18T09:42:14.893Z,19.12
2022-09-18T09:43:14.847Z,18.99
2022-09-18T09:44:14.840Z,18.82
2022-09-18T09:45:14.825Z,18.64
2022-09-18T09:46:18.145Z,18.56
2022-09-18T09:47:16.374Z,18.56
2022-09-18T09:48:14.793Z,18.69
2022-09-18T09:49:14.772Z,18.87
2022-09-18T09:50:14.775Z,19.07
2022-09-18T09:51:14.744Z,19.25
2022-09-18T09:52:14.744Z,19.35
2022-09-18T09:53:14.716Z,19.45
2022-09-18T09:54:14.702Z,19.52
2022-09-18T09:55:14.701Z,19.60
2022-09-18T09:56:14.970Z,19.71
2022-09-18T09:57:14.683Z,19.82
2022-09-18T09:58:14.875Z,19.85
2022-09-18T09:59:14.633Z,19.80
2022-09-18T10:00:14.625Z,19.75
2022-09-18T10:01:14.697Z,19.76
2022-09-18T10:02:14.663Z,19.87
2022-09-18T10:03:14.583Z,20.02
2022-09-18T10:04:14.572Z,20.12
2022-09-18T10:05:14.678Z,20.10
2022-09-18T10:06:14.551Z,20.13
2022-09-18T10:07:14.534Z,20.16
2022-09-18T10:08:14.523Z,20.22
2022-09-18T10:09:14.502Z,20.27
2022-09-18T10:10:14.483Z,20.31
2022-09-18T10:11:14.483Z,20.30
2022-09-18T10:12:14.482Z,20.31
2022-09-18T10:13:14.443Z,20.33
2022-09-18T10:14:14.440Z,20.31
2022-09-18T10:15:14.423Z,20.26
2022-09-18T10:16:15.155Z,20.26
2022-09-18T10:17:14.434Z,20.25
2022-09-18T10:18:16.314Z,20.20
2022-09-18T10:19:14.371Z,20.22
2022-09-18T10:20:14.385Z,20.31
2022-09-18T10:21:14.353Z,20.25
2022-09-18T10:22:14.376Z,20.22
2022-09-18T10:23:14.335Z,20.16
2022-09-18T10:24:14.307Z,20.10
2022-09-18T10:25:14.284Z,20.08
2022-09-18T10:26:14.291Z,20.08
2022-09-18T10:27:14.310Z,20.07
2022-09-18T10:28:14.269Z,20.05
2022-09-18T10:29:14.234Z,20.07
2022-09-18T10:30:14.286Z,20.04
2022-09-18T10:31:14.239Z,20.08
2022-09-18T10:32:14.216Z,20.10
2022-09-18T10:33:14.178Z,20.10
2022-09-18T10:34:14.168Z,20.08
2022-09-18T10:35:14.156Z,20.07
2022-09-18T10:36:14.164Z,20.05
2022-09-18T10:37:14.135Z,20.02
2022-09-18T10:38:14.124Z,19.98
2022-09-18T10:39:14.115Z,19.89
2022-09-18T10:40:14.153Z,19.83
2022-09-18T10:41:14.112Z,19.76
2022-09-18T10:42:14.066Z,19.65
2022-09-18T10:43:14.065Z,19.58
2022-09-18T10:44:14.044Z,19.50
2022-09-18T10:45:14.080Z,19.39
2022-09-18T10:46:14.573Z,19.27
2022-09-18T10:47:14.007Z,19.15
2022-09-18T10:48:13.984Z,19.05
2022-09-18T10:49:13.983Z,18.94
2022-09-18T10:50:13.970Z,18.87
2022-09-18T10:51:13.957Z,18.79
2022-09-18T10:52:13.937Z,18.74
2022-09-18T10:53:13.915Z,18.68
2022-09-18T10:54:13.904Z,18.57
2022-09-18T10:55:13.938Z,18.47
2022-09-18T10:56:13.879Z,18.36
2022-09-18T10:57:13.865Z,18.26
2022-09-18T10:58:13.846Z,18.14
2022-09-18T10:59:13.842Z,17.99
2022-09-18T11:00:13.911Z,17.89
2022-09-18T11:01:13.872Z,17.74
2022-09-18T11:02:13.831Z,17.63
2022-09-18T11:03:13.791Z,17.46
2022-09-18T11:04:13.789Z,17.33
2022-09-18T11:05:13.768Z,17.18
2022-09-18T11:06:13.748Z,17.05
2022-09-18T11:07:13.728Z,16.99
2022-09-18T11:08:13.718Z,16.92
2022-09-18T11:09:13.697Z,16.88
2022-09-18T11:10:13.706Z,16.84
2022-09-18T11:11:13.677Z,16.78
2022-09-18T11:12:13.656Z,16.72
2022-09-18T11:13:13.665Z,16.63
2022-09-18T11:14:13.652Z,16.55
2022-09-18T11:15:13.657Z,16.51
2022-09-18T11:16:13.682Z,16.50
2022-09-18T11:17:13.596Z,16.44
2022-09-18T11:18:13.577Z,16.36
2022-09-18T11:19:13.567Z,16.29
2022-09-18T11:20:13.568Z,16.23
2022-09-18T11:21:13.549Z,16.10
2022-09-18T11:22:13.527Z,16.01
2022-09-18T11:23:13.512Z,15.91
2022-09-18T11:24:13.507Z,15.86
2022-09-18T11:25:13.497Z,15.84
2022-09-18T11:26:13.476Z,15.85
2022-09-18T11:27:13.458Z,15.86
2022-09-18T11:28:13.449Z,15.91
2022-09-18T11:29:13.432Z,15.92
2022-09-18T11:30:13.437Z,15.93
2022-09-18T11:31:13.496Z,15.96
2022-09-18T11:32:13.389Z,15.93
2022-09-18T11:33:13.379Z,15.93
2022-09-18T11:34:13.367Z,15.98
2022-09-18T11:35:13.359Z,16.01
2022-09-18T11:36:13.347Z,16.06
2022-09-18T11:37:13.318Z,16.10
2022-09-18T11:38:13.319Z,16.13
2022-09-18T11:39:13.316Z,16.16
2022-09-18T11:40:13.375Z,16.17
2022-09-18T11:41:13.378Z,16.23
2022-09-18T11:42:13.267Z,16.23
2022-09-18T11:43:13.248Z,16.26
2022-09-18T11:44:13.241Z,16.27
2022-09-18T11:45:13.244Z,16.26
2022-09-18T11:46:13.243Z,16.25
2022-09-18T11:47:13.186Z,16.26
2022-09-18T11:48:13.259Z,16.29
2022-09-18T11:49:13.500Z,16.27
2022-09-18T11:50:13.170Z,16.29
2022-09-18T11:51:13.187Z,16.32
2022-09-18T11:52:13.137Z,16.33
2022-09-18T11:53:13.123Z,16.34
2022-09-18T11:54:13.100Z,16.36
2022-09-18T11:55:13.095Z,16.40
2022-09-18T11:56:13.078Z,16.37
2022-09-18T11:57:13.056Z,16.40
2022-09-18T11:58:13.068Z,16.37
2022-09-18T11:59:13.028Z,16.41
2022-09-18T12:00:13.039Z,16.47
2022-09-18T12:01:13.017Z,16.50
2022-09-18T12:02:13.017Z,16.52
2022-09-18T12:03:13.226Z,16.59
2022-09-18T12:04:12.968Z,16.59
2022-09-18T12:05:12.956Z,16.55
2022-09-18T12:06:12.946Z,16.54
2022-09-18T12:07:12.918Z,16.50
2022-09-18T12:08:11.591Z,16.48
2022-09-18T12:09:11.542Z,16.50
2022-09-18T12:10:11.538Z,16.50
2022-09-18T12:11:11.630Z,16.45
2022-09-18T12:12:11.501Z,16.45
2022-09-18T12:13:11.488Z,16.45
2022-09-18T12:14:11.475Z,16.47
2022-09-18T12:15:11.465Z,16.45
2022-09-18T12:16:11.468Z,16.47
2022-09-18T12:17:11.436Z,16.50
2022-09-18T12:18:11.682Z,16.52
2022-09-18T12:19:11.401Z,16.52
2022-09-18T12:20:11.410Z,16.54
2022-09-18T12:21:11.372Z,16.59
2022-09-18T12:22:11.363Z,16.60
2022-09-18T12:23:11.367Z,16.63
2022-09-18T12:24:11.332Z,16.65
2022-09-18T12:25:11.339Z,16.59
2022-09-18T12:26:11.306Z,16.57
2022-09-18T12:27:11.295Z,16.55
2022-09-18T12:28:11.278Z,16.54
2022-09-18T12:29:11.264Z,16.54
2022-09-18T12:30:11.281Z,16.55
2022-09-18T12:31:11.260Z,16.57
2022-09-18T12:32:11.219Z,16.59
2022-09-18T12:33:13.322Z,16.59
2022-09-18T12:34:11.189Z,16.60
2022-09-18T12:35:11.192Z,16.62
2022-09-18T12:36:11.160Z,16.60
2022-09-18T12:37:11.155Z,16.59
2022-09-18T12:38:11.137Z,16.59
2022-09-18T12:39:13.098Z,16.52
2022-09-18T12:40:11.848Z,16.48
2022-09-18T12:41:11.762Z,16.45
2022-09-18T12:42:11.753Z,16.41
2022-09-18T12:43:11.736Z,16.33
2022-09-18T12:44:11.726Z,16.30
2022-09-18T12:45:11.712Z,16.26
2022-09-18T12:46:11.743Z,16.22
2022-09-18T12:47:11.680Z,16.13
2022-09-18T12:48:11.672Z,16.10
2022-09-18T12:49:11.668Z,16.03
2022-09-18T12:50:11.633Z,15.96
2022-09-18T12:51:11.628Z,15.85
2022-09-18T12:52:11.648Z,15.76
2022-09-18T12:53:11.597Z,15.68
2022-09-18T12:54:11.616Z,15.62